Elm Hall, Michigan
Current Conditions -  °F | °C
As of 9:14 AM on Thursday 30 Oct 2014 (Local Time) from KAMN Reporting Station
Overcast Overcast  
Wind Chill: 40°   Ceiling: 3700
Heat Index: 40°   Visibility: 10mi
Dew Point: 38°   Wind: 0mph
Humidity: 91%   Direction: NA
Pressure: 30.13"   Gusts: NA
Location:  43.36°N, 84.84°W
Report Text: KAMN 301314Z AUTO 00000KT 10SM OVC037 05/03 A3013 RMK AO2 T00450032
Loading
Personal Weather Stations






























Interactive Weather Map
Tropical Storm Tracking
New forecast layout! Learn more

10-Day Weather Forecast

Advertisements
Track Severe Weather on mobile